KQFT

Yangsu-ri

Yangsu-ri, South Korea
METAR KQFT 190710Z AUTO 01002KT 9999 CLR 06/M13 A3017 RMK A02 TSNO
Observed Flight Rules
Jan-19 @ 07:10 UTC (21 minutes ago) Visual Flight Rules
Wind Visibility Clouds
10° at 2 knots 10,000+ meters
  • Clear skies
Temperatures Readings
Current 6°C / 43°F
Dewpoint -13°C / 9°F
Humidity 24%
Altimeter 30.17" Hg
Pressure 1022 hPa
METAR KQFT 190710Z AUTO 01002KT 9999 CLR 06/M13 A3017 RMK A02 TSNO
Observed Flight Rules
Jan-19 @ 07:10 UTC
(21 minutes ago)
VFR
Wind Visibility
10° at 2 knots 10,000+ meters
Clouds
  • Clear skies
Temperature Dewpoint
6°C / 43°F -13°C / 9°F
Humidity Altimeter Pressure
24% 30.17" Hg 1022 hPa